METAR Data
IDs: Format: Raw Decoded Include TAF

Data at: 1328 UTC 21 Apr 2021

METAR for:KMCW (Mason City Muni, IA, US)
Text:KMCW 211253Z AUTO 32010KT 10SM CLR M02/M09 A3019 RMK AO2 SLP232 T10221089
Temperature: -2.2°C ( 28°F)
Dewpoint: -8.9°C ( 16°F) [RH = 60%]
Pressure (altimeter):30.19 inches Hg (1022.4 mb) [Sea level pressure: 1023.2 mb]
Winds:from the NW (320 degrees) at 12 MPH (10 knots; 5.1 m/s)
Visibility:10 or more sm (16+ km)
Ceiling:at least 12,000 feet AGL
Clouds:sky clear below 12,000 feet AGL
QC Flag:automated observation with no human augmentation